createdAt,value
2022-12-28T00:01:52.403Z,11.78
2022-12-28T00:03:56.144Z,11.78
2022-12-28T00:05:58.846Z,11.76
2022-12-28T00:08:02.913Z,11.76
2022-12-28T00:10:06.463Z,11.77
2022-12-28T00:12:09.237Z,11.76
2022-12-28T00:14:12.111Z,11.75
2022-12-28T00:16:25.223Z,11.76
2022-12-28T00:18:28.006Z,11.79
2022-12-28T00:20:30.778Z,11.80
2022-12-28T00:22:33.466Z,11.80
2022-12-28T00:24:38.493Z,11.77
2022-12-28T00:26:41.233Z,11.81
2022-12-28T00:28:43.910Z,11.83
2022-12-28T00:30:46.550Z,11.82
2022-12-28T00:32:49.309Z,11.82
2022-12-28T00:34:52.102Z,11.85
2022-12-28T00:37:08.300Z,11.84
2022-12-28T00:39:15.260Z,11.82
2022-12-28T00:41:19.458Z,11.78
2022-12-28T00:43:22.600Z,11.78
2022-12-28T00:45:25.413Z,11.81
2022-12-28T00:47:28.062Z,11.79
2022-12-28T00:49:30.743Z,11.77
2022-12-28T00:51:33.588Z,11.75
2022-12-28T00:53:36.369Z,11.75
2022-12-28T00:55:39.702Z,11.74
2022-12-28T00:57:43.794Z,11.73
2022-12-28T00:59:46.487Z,11.75
2022-12-28T01:01:49.248Z,11.78
2022-12-28T01:03:52.508Z,11.76
2022-12-28T01:05:55.366Z,11.74
2022-12-28T01:07:58.007Z,11.76
2022-12-28T01:10:00.663Z,11.75
2022-12-28T01:12:03.378Z,11.76
2022-12-28T01:14:07.387Z,11.75
2022-12-28T01:16:14.054Z,11.77
2022-12-28T01:18:16.874Z,11.76
2022-12-28T01:20:19.746Z,11.76
2022-12-28T01:22:22.537Z,11.75
2022-12-28T01:24:25.199Z,11.73
2022-12-28T01:26:28.034Z,11.69
2022-12-28T01:28:30.900Z,11.67
2022-12-28T01:30:35.021Z,11.68
2022-12-28T01:32:42.259Z,11.70
2022-12-28T01:34:44.906Z,11.73
2022-12-28T01:36:47.398Z,11.73
2022-12-28T01:38:53.900Z,11.71
2022-12-28T01:40:56.648Z,11.69
2022-12-28T01:42:59.321Z,11.68
2022-12-28T01:45:16.531Z,11.64
2022-12-28T01:47:27.539Z,11.66
2022-12-28T01:49:32.798Z,11.65
2022-12-28T01:51:43.237Z,11.61
2022-12-28T01:53:46.905Z,11.61
2022-12-28T01:55:49.984Z,11.64
2022-12-28T01:57:56.696Z,11.61
2022-12-28T02:00:03.491Z,11.62
2022-12-28T02:02:06.538Z,11.64
2022-12-28T02:04:11.648Z,11.66
2022-12-28T02:06:14.498Z,11.59
2022-12-28T02:08:21.436Z,11.59
2022-12-28T02:10:44.068Z,11.57
2022-12-28T02:12:48.164Z,11.58
2022-12-28T02:14:50.931Z,11.59
2022-12-28T02:16:55.204Z,11.63
2022-12-28T02:18:58.255Z,11.65
2022-12-28T02:21:18.974Z,11.63
2022-12-28T02:23:36.830Z,11.63
2022-12-28T02:25:57.144Z,11.62
2022-12-28T02:28:09.277Z,11.60
2022-12-28T02:30:14.491Z,11.61
2022-12-28T02:32:30.930Z,11.62
2022-12-28T02:34:39.493Z,11.62
2022-12-28T02:36:47.167Z,11.58
2022-12-28T02:38:55.051Z,11.56
2022-12-28T02:41:02.650Z,11.59
2022-12-28T02:43:05.494Z,11.59
2022-12-28T02:45:34.481Z,11.58
2022-12-28T02:47:58.986Z,11.56
2022-12-28T02:50:08.932Z,11.56
2022-12-28T02:52:22.578Z,11.56
2022-12-28T02:55:00.582Z,11.55
2022-12-28T02:57:12.775Z,11.55
2022-12-28T02:59:38.213Z,11.54
2022-12-28T03:02:01.653Z,11.55
2022-12-28T03:04:16.490Z,11.56
2022-12-28T03:06:48.997Z,11.55
2022-12-28T03:08:57.288Z,11.58
2022-12-28T03:11:05.944Z,11.59
2022-12-28T03:13:32.106Z,11.58
2022-12-28T03:15:39.339Z,11.60
2022-12-28T03:18:02.858Z,11.59
2022-12-28T03:20:30.341Z,11.58
2022-12-28T03:22:54.604Z,11.56
2022-12-28T03:25:18.131Z,11.55
2022-12-28T03:27:41.036Z,11.53
2022-12-28T03:30:07.050Z,11.55
2022-12-28T03:32:10.979Z,11.56
2022-12-28T03:34:14.551Z,11.56
2022-12-28T03:36:24.149Z,11.57
2022-12-28T03:38:32.996Z,11.59
2022-12-28T03:40:45.807Z,11.57
2022-12-28T03:43:09.670Z,11.55
2022-12-28T03:45:45.669Z,11.53
2022-12-28T03:47:45.439Z,11.51
2022-12-28T03:49:48.375Z,11.51
2022-12-28T03:51:53.365Z,11.51
2022-12-28T03:53:56.435Z,11.51
2022-12-28T03:56:11.336Z,11.51
2022-12-28T03:58:14.123Z,11.48
2022-12-28T04:00:17.339Z,11.50
2022-12-28T04:02:20.144Z,11.49
2022-12-28T04:04:23.256Z,11.46
2022-12-28T04:06:26.780Z,11.48
2022-12-28T04:08:32.283Z,11.46
2022-12-28T04:10:34.955Z,11.44
2022-12-28T04:12:37.629Z,11.42
2022-12-28T04:14:40.264Z,11.41
2022-12-28T04:16:42.911Z,11.42
2022-12-28T04:18:45.761Z,11.42
2022-12-28T04:20:48.641Z,11.38
2022-12-28T04:22:51.318Z,11.38
2022-12-28T04:24:55.360Z,11.40
2022-12-28T04:26:58.112Z,11.38
2022-12-28T04:29:02.112Z,11.36
2022-12-28T04:31:07.134Z,11.35
2022-12-28T04:33:09.850Z,11.35
2022-12-28T04:35:12.516Z,11.37
2022-12-28T04:37:15.232Z,11.40
2022-12-28T04:39:18.531Z,11.37
2022-12-28T04:41:22.571Z,11.35
2022-12-28T04:43:25.294Z,11.33
2022-12-28T04:45:27.980Z,11.32
2022-12-28T04:47:30.667Z,11.33
2022-12-28T04:49:33.378Z,11.33
2022-12-28T04:51:38.296Z,11.33
2022-12-28T04:53:42.324Z,11.28
2022-12-28T04:55:45.197Z,11.27
2022-12-28T04:57:49.439Z,11.25
2022-12-28T04:59:52.143Z,11.25
2022-12-28T05:01:54.915Z,11.26
2022-12-28T05:04:00.527Z,11.25
2022-12-28T05:06:03.589Z,11.24
2022-12-28T05:08:06.966Z,11.23
2022-12-28T05:10:10.227Z,11.23
2022-12-28T05:12:12.975Z,11.28
2022-12-28T05:14:17.070Z,11.30
2022-12-28T05:16:23.882Z,11.26
2022-12-28T05:18:26.623Z,11.23
2022-12-28T05:20:29.370Z,11.24
2022-12-28T05:22:37.702Z,11.25
2022-12-28T05:24:43.334Z,11.25
2022-12-28T05:26:46.169Z,11.23
2022-12-28T05:28:49.173Z,11.21
2022-12-28T05:30:54.175Z,11.19
2022-12-28T05:32:56.840Z,11.21
2022-12-28T05:34:59.490Z,11.20
2022-12-28T05:37:02.168Z,11.18
2022-12-28T05:39:05.646Z,11.20
2022-12-28T05:41:10.369Z,11.21
2022-12-28T05:43:13.053Z,11.23
2022-12-28T05:45:15.820Z,11.21
2022-12-28T05:47:19.831Z,11.19
2022-12-28T05:49:22.585Z,11.21
2022-12-28T05:51:27.876Z,11.23
2022-12-28T05:53:31.340Z,11.26
2022-12-28T05:55:34.007Z,11.28
2022-12-28T05:57:36.685Z,11.24
2022-12-28T05:59:39.362Z,11.23
2022-12-28T06:01:45.092Z,11.22
2022-12-28T06:03:54.441Z,11.22
2022-12-28T06:05:57.240Z,11.25
2022-12-28T06:08:01.130Z,11.22
2022-12-28T06:10:04.396Z,11.21
2022-12-28T06:12:07.421Z,11.19
2022-12-28T06:14:10.348Z,11.21
2022-12-28T06:16:16.578Z,11.22
2022-12-28T06:18:19.533Z,11.26
2022-12-28T06:20:23.579Z,11.28
2022-12-28T06:22:26.303Z,11.31
2022-12-28T06:24:28.976Z,11.30
2022-12-28T06:26:33.615Z,11.27
2022-12-28T06:28:38.193Z,11.30
2022-12-28T06:30:40.910Z,11.29
2022-12-28T06:32:43.581Z,11.28
2022-12-28T06:34:46.349Z,11.28
2022-12-28T06:36:52.521Z,11.23
2022-12-28T06:38:57.592Z,11.24
2022-12-28T06:41:13.273Z,11.22
2022-12-28T06:43:17.419Z,11.19
2022-12-28T06:45:19.905Z,11.20
2022-12-28T06:47:22.632Z,11.20
2022-12-28T06:49:25.326Z,11.21
2022-12-28T06:51:29.365Z,11.20
2022-12-28T06:53:35.643Z,11.20
2022-12-28T06:55:38.427Z,11.21
2022-12-28T06:57:41.101Z,11.18
2022-12-28T06:59:44.151Z,11.20
2022-12-28T07:01:46.918Z,11.18
2022-12-28T07:03:51.540Z,11.16
2022-12-28T07:05:54.311Z,11.18
2022-12-28T07:07:57.061Z,11.16
2022-12-28T07:10:01.109Z,11.16
2022-12-28T07:12:03.799Z,11.16
2022-12-28T07:14:06.704Z,11.15
2022-12-28T07:16:12.801Z,11.15
2022-12-28T07:18:17.093Z,11.13
2022-12-28T07:20:19.792Z,11.09
2022-12-28T07:22:22.421Z,11.09
2022-12-28T07:24:25.106Z,11.09
2022-12-28T07:26:32.216Z,11.08
2022-12-28T07:28:37.078Z,11.07
2022-12-28T07:30:40.136Z,11.09
2022-12-28T07:32:42.881Z,11.09
2022-12-28T07:34:45.545Z,11.08
2022-12-28T07:36:49.842Z,11.07
2022-12-28T07:38:53.327Z,11.07
2022-12-28T07:41:02.161Z,11.10
2022-12-28T07:43:07.087Z,11.11
2022-12-28T07:45:12.730Z,11.13
2022-12-28T07:47:16.658Z,11.12
2022-12-28T07:49:19.393Z,11.13
2022-12-28T07:51:23.914Z,11.16
2022-12-28T07:53:26.762Z,11.17
2022-12-28T07:55:31.913Z,11.17
2022-12-28T07:57:35.317Z,11.17
2022-12-28T07:59:39.364Z,11.18
2022-12-28T08:01:42.105Z,11.15
2022-12-28T08:03:44.972Z,11.14
2022-12-28T08:05:47.724Z,11.15
2022-12-28T08:07:50.580Z,11.15
2022-12-28T08:09:53.325Z,11.14
2022-12-28T08:11:56.133Z,11.14
2022-12-28T08:14:00.206Z,11.19
2022-12-28T08:16:04.990Z,11.22
2022-12-28T08:18:08.105Z,11.19
2022-12-28T08:20:11.528Z,11.23
2022-12-28T08:22:14.207Z,11.23
2022-12-28T08:24:19.020Z,11.22
2022-12-28T08:26:24.275Z,11.21
2022-12-28T08:28:26.965Z,11.23
2022-12-28T08:30:29.719Z,11.25
2022-12-28T08:32:33.937Z,11.25
2022-12-28T08:34:36.590Z,11.27
2022-12-28T08:36:39.400Z,11.23
2022-12-28T08:38:43.167Z,11.23
2022-12-28T08:40:45.888Z,11.29
2022-12-28T08:42:50.053Z,11.28
2022-12-28T08:44:52.725Z,11.27
2022-12-28T08:46:56.126Z,11.29
2022-12-28T08:49:01.173Z,11.30
2022-12-28T08:51:05.898Z,11.30
2022-12-28T08:53:08.625Z,11.26
2022-12-28T08:55:11.695Z,11.27
2022-12-28T08:57:14.438Z,11.28
2022-12-28T08:59:19.700Z,11.29
2022-12-28T09:01:25.166Z,11.32
2022-12-28T09:03:28.031Z,11.32
2022-12-28T09:05:37.488Z,11.34
2022-12-28T09:07:42.102Z,11.37
2022-12-28T09:09:44.802Z,11.36
2022-12-28T09:11:47.564Z,11.38
2022-12-28T09:13:50.803Z,11.36
2022-12-28T09:15:58.159Z,11.35
2022-12-28T09:18:01.089Z,11.35
2022-12-28T09:20:03.971Z,11.34
2022-12-28T09:22:08.026Z,11.34
2022-12-28T09:24:10.672Z,11.34
2022-12-28T09:26:15.497Z,11.30
2022-12-28T09:28:18.228Z,11.28
2022-12-28T09:30:21.022Z,11.26
2022-12-28T09:32:23.698Z,11.26
2022-12-28T09:34:41.940Z,11.23
2022-12-28T09:36:45.595Z,11.23
2022-12-28T09:38:51.106Z,11.25
2022-12-28T09:40:53.952Z,11.26
2022-12-28T09:42:56.665Z,11.28
2022-12-28T09:45:04.075Z,11.26
2022-12-28T09:47:17.420Z,11.25
2022-12-28T09:49:25.332Z,11.27
2022-12-28T09:51:34.704Z,11.32
2022-12-28T09:53:37.780Z,11.33
2022-12-28T09:55:54.610Z,11.30
2022-12-28T09:57:59.797Z,11.28
2022-12-28T10:00:03.894Z,11.26
2022-12-28T10:02:18.691Z,11.30
2022-12-28T10:04:21.442Z,11.35
2022-12-28T10:06:26.851Z,11.36
2022-12-28T10:08:30.623Z,11.33
2022-12-28T10:10:34.377Z,11.30
2022-12-28T10:12:38.399Z,11.28
2022-12-28T10:14:41.305Z,11.27
2022-12-28T10:16:48.438Z,11.29
2022-12-28T10:18:51.374Z,11.26
2022-12-28T10:20:55.040Z,11.30
2022-12-28T10:22:59.672Z,11.34
2022-12-28T10:25:02.405Z,11.33
2022-12-28T10:27:08.080Z,11.28
2022-12-28T10:29:19.153Z,11.24
2022-12-28T10:31:33.527Z,11.26
2022-12-28T10:33:40.217Z,11.25
2022-12-28T10:35:49.748Z,11.26
2022-12-28T10:37:53.493Z,11.28
2022-12-28T10:39:59.349Z,11.28
2022-12-28T10:42:03.430Z,11.26
2022-12-28T10:44:41.885Z,11.24
2022-12-28T10:46:53.694Z,11.23
2022-12-28T10:48:59.812Z,11.21
2022-12-28T10:51:13.385Z,11.22
2022-12-28T10:53:33.453Z,11.23
2022-12-28T10:55:36.413Z,11.25
2022-12-28T10:58:02.988Z,11.26
2022-12-28T11:00:22.775Z,11.26
2022-12-28T11:02:28.680Z,11.30
2022-12-28T11:04:31.585Z,11.26
2022-12-28T11:06:35.865Z,11.27
2022-12-28T11:08:39.532Z,11.25
2022-12-28T11:10:42.433Z,11.26
2022-12-28T11:12:46.201Z,11.27
2022-12-28T11:14:48.911Z,11.26
2022-12-28T11:16:53.329Z,11.30
2022-12-28T11:18:56.081Z,11.32
2022-12-28T11:20:59.107Z,11.30
2022-12-28T11:23:02.449Z,11.30
2022-12-28T11:25:07.590Z,11.30
2022-12-28T11:27:14.638Z,11.33
2022-12-28T11:29:20.521Z,11.35
2022-12-28T11:31:27.496Z,11.37
2022-12-28T11:33:36.710Z,11.36
2022-12-28T11:35:41.340Z,11.35
2022-12-28T11:37:50.247Z,11.36
2022-12-28T11:39:53.890Z,11.38
2022-12-28T11:42:28.052Z,11.40
2022-12-28T11:44:44.099Z,11.41
2022-12-28T11:47:02.225Z,11.43
2022-12-28T11:49:23.381Z,11.44
2022-12-28T11:51:27.804Z,11.45
2022-12-28T11:53:53.150Z,11.48
2022-12-28T11:56:07.951Z,11.49
2022-12-28T11:58:43.871Z,11.49
2022-12-28T12:00:50.121Z,11.52
2022-12-28T12:02:54.152Z,11.53
2022-12-28T12:04:58.150Z,11.53
2022-12-28T12:07:31.743Z,11.54
2022-12-28T12:09:43.675Z,11.58
2022-12-28T12:11:47.477Z,11.58
2022-12-28T12:13:51.812Z,11.60
2022-12-28T12:15:59.296Z,11.63
2022-12-28T12:18:04.648Z,11.69
2022-12-28T12:20:16.051Z,11.72
2022-12-28T12:22:23.849Z,11.73
2022-12-28T12:24:31.665Z,11.77
2022-12-28T12:26:38.026Z,11.80
2022-12-28T12:28:47.050Z,11.79
2022-12-28T12:30:50.574Z,11.81
2022-12-28T12:32:57.948Z,11.81
2022-12-28T12:35:05.061Z,11.78
2022-12-28T12:37:26.054Z,11.77
2022-12-28T12:39:45.944Z,11.79
2022-12-28T12:42:02.639Z,11.81
2022-12-28T12:44:20.301Z,11.78
2022-12-28T12:47:03.712Z,11.77
2022-12-28T12:49:31.646Z,11.82
2022-12-28T12:51:39.821Z,11.85
2022-12-28T12:53:59.929Z,11.88
2022-12-28T12:56:10.067Z,11.91
2022-12-28T12:58:22.365Z,11.93
2022-12-28T13:00:31.343Z,11.96
2022-12-28T13:02:54.325Z,11.95
2022-12-28T13:04:57.437Z,11.98
2022-12-28T13:07:03.296Z,12.00
2022-12-28T13:09:13.487Z,12.01
2022-12-28T13:11:17.736Z,12.03
2022-12-28T13:13:28.168Z,12.01
2022-12-28T13:15:32.160Z,12.03
2022-12-28T13:17:35.321Z,12.03
2022-12-28T13:19:38.233Z,12.02
2022-12-28T13:21:43.235Z,12.02
2022-12-28T13:23:46.479Z,12.03
2022-12-28T13:25:53.705Z,12.02
2022-12-28T13:27:57.519Z,12.04
2022-12-28T13:30:02.497Z,12.07
2022-12-28T13:32:05.719Z,12.08
2022-12-28T13:34:18.417Z,12.10
2022-12-28T13:36:21.204Z,12.10
2022-12-28T13:38:23.878Z,12.11
2022-12-28T13:40:27.010Z,12.09
2022-12-28T13:42:41.681Z,12.10
2022-12-28T13:44:46.629Z,12.11
2022-12-28T13:46:54.400Z,12.11
2022-12-28T13:48:59.441Z,12.11
2022-12-28T13:51:02.800Z,12.11
2022-12-28T13:53:12.092Z,12.12
2022-12-28T13:55:18.836Z,12.10
2022-12-28T13:59:53.120Z,12.13
2022-12-28T14:01:57.219Z,12.11
2022-12-28T14:04:33.566Z,12.10
2022-12-28T14:06:26.769Z,12.10
2022-12-28T14:08:34.880Z,12.11
2022-12-28T14:10:37.921Z,12.11
2022-12-28T14:12:41.284Z,12.08
2022-12-28T14:14:45.221Z,12.08
2022-12-28T14:16:50.761Z,12.09
2022-12-28T14:18:54.099Z,12.10
2022-12-28T14:20:59.220Z,12.11
2022-12-28T14:23:20.364Z,12.10
2022-12-28T14:25:24.718Z,12.13
2022-12-28T14:27:27.853Z,12.12
2022-12-28T14:29:34.051Z,12.16
2022-12-28T14:31:36.906Z,12.17
2022-12-28T14:33:53.133Z,12.18
2022-12-28T14:36:00.032Z,12.17
2022-12-28T14:38:03.016Z,12.16
2022-12-28T14:40:08.050Z,12.15
2022-12-28T14:42:20.782Z,12.17
2022-12-28T14:44:29.477Z,12.18
2022-12-28T14:46:35.139Z,12.20
2022-12-28T14:48:40.587Z,12.23
2022-12-28T14:50:57.287Z,12.28
2022-12-28T14:53:09.147Z,12.27
2022-12-28T14:55:30.324Z,12.24
2022-12-28T14:57:39.914Z,12.21
2022-12-28T14:59:48.400Z,12.20
2022-12-28T15:01:52.539Z,12.23
2022-12-28T15:03:57.408Z,12.24
2022-12-28T15:06:02.456Z,12.23
2022-12-28T15:08:05.931Z,12.23
2022-12-28T15:10:10.129Z,12.20
2022-12-28T15:12:15.216Z,12.21
2022-12-28T15:14:17.857Z,12.20
2022-12-28T15:16:23.195Z,12.17
2022-12-28T15:18:26.932Z,12.17
2022-12-28T15:20:29.814Z,12.20
2022-12-28T15:22:34.057Z,12.23
2022-12-28T15:24:37.416Z,12.23
2022-12-28T15:26:40.209Z,12.26
2022-12-28T15:28:43.133Z,12.24
2022-12-28T15:30:46.064Z,12.23
2022-12-28T15:32:48.776Z,12.24
2022-12-28T15:34:51.470Z,12.24
2022-12-28T15:36:54.195Z,12.21
2022-12-28T15:38:59.323Z,12.18
2022-12-28T15:41:01.993Z,12.14
2022-12-28T15:43:04.655Z,12.14
2022-12-28T15:45:10.360Z,12.15
2022-12-28T15:47:13.160Z,12.18
2022-12-28T15:49:15.925Z,12.18
2022-12-28T15:51:18.617Z,12.19
2022-12-28T15:53:21.641Z,12.20
2022-12-28T15:55:25.697Z,12.23
2022-12-28T15:57:28.875Z,12.23
2022-12-28T15:59:31.615Z,12.23
2022-12-28T16:01:34.951Z,12.26
2022-12-28T16:03:37.914Z,12.27
2022-12-28T16:05:40.579Z,12.26
2022-12-28T16:07:43.252Z,12.26
2022-12-28T16:09:46.322Z,12.26
2022-12-28T16:11:55.103Z,12.26
2022-12-28T16:13:59.992Z,12.30
2022-12-28T16:16:05.789Z,12.29
2022-12-28T16:18:08.591Z,12.32
2022-12-28T16:20:12.210Z,12.35
2022-12-28T16:22:14.922Z,12.37
2022-12-28T16:24:18.315Z,12.39
2022-12-28T16:26:21.198Z,12.37
2022-12-28T16:28:25.297Z,12.36
2022-12-28T16:30:28.117Z,12.37
2022-12-28T16:32:30.859Z,12.39
2022-12-28T16:34:33.509Z,12.40
2022-12-28T16:36:36.325Z,12.42
2022-12-28T16:38:39.080Z,12.43
2022-12-28T16:40:41.751Z,12.42
2022-12-28T16:42:45.899Z,12.43
2022-12-28T16:44:50.813Z,12.45
2022-12-28T16:46:56.452Z,12.42
2022-12-28T16:49:00.809Z,12.44
2022-12-28T16:51:03.488Z,12.44
2022-12-28T16:53:06.493Z,12.46
2022-12-28T16:55:09.556Z,12.44
2022-12-28T16:57:13.035Z,12.45
2022-12-28T16:59:17.826Z,12.47
2022-12-28T17:01:21.991Z,12.47
2022-12-28T17:03:25.398Z,12.48
2022-12-28T17:05:28.167Z,12.48
2022-12-28T17:07:30.874Z,12.48
2022-12-28T17:09:33.585Z,12.47
2022-12-28T17:11:36.338Z,12.47
2022-12-28T17:13:39.521Z,12.47
2022-12-28T17:15:43.028Z,12.47
2022-12-28T17:17:47.058Z,12.48
2022-12-28T17:19:50.074Z,12.48
2022-12-28T17:21:52.757Z,12.50
2022-12-28T17:23:55.594Z,12.49
2022-12-28T17:25:58.277Z,12.48
2022-12-28T17:28:01.373Z,12.49
2022-12-28T17:30:04.801Z,12.53
2022-12-28T17:32:08.749Z,12.54
2022-12-28T17:34:12.810Z,12.56
2022-12-28T17:36:15.889Z,12.56
2022-12-28T17:38:18.908Z,12.57
2022-12-28T17:40:21.581Z,12.58
2022-12-28T17:42:24.359Z,12.59
2022-12-28T17:44:27.147Z,12.61
2022-12-28T17:46:31.501Z,12.59
2022-12-28T17:48:34.302Z,12.62
2022-12-28T17:50:42.706Z,12.60
2022-12-28T17:52:45.898Z,12.62
2022-12-28T17:54:48.738Z,12.63
2022-12-28T17:56:51.417Z,12.63
2022-12-28T17:58:56.656Z,12.59
2022-12-28T18:00:59.824Z,12.62
2022-12-28T18:03:02.725Z,12.62
2022-12-28T18:05:05.509Z,12.64
2022-12-28T18:07:09.532Z,12.64
2022-12-28T18:09:12.148Z,12.65
2022-12-28T18:11:15.084Z,12.66
2022-12-28T18:13:18.764Z,12.66
2022-12-28T18:15:21.649Z,12.65
2022-12-28T18:17:24.255Z,12.67
2022-12-28T18:19:27.074Z,12.68
2022-12-28T18:21:29.926Z,12.67
2022-12-28T18:23:34.262Z,12.70
2022-12-28T18:25:37.894Z,12.70
2022-12-28T18:27:40.655Z,12.67
2022-12-28T18:29:45.048Z,12.66
2022-12-28T18:31:47.837Z,12.65
2022-12-28T18:33:50.824Z,12.69
2022-12-28T18:35:53.589Z,12.71
2022-12-28T18:37:56.432Z,12.73
2022-12-28T18:40:00.575Z,12.73
2022-12-28T18:42:03.455Z,12.72
2022-12-28T18:44:07.558Z,12.70
2022-12-28T18:46:10.733Z,12.68
2022-12-28T18:48:13.455Z,12.69
2022-12-28T18:50:16.459Z,12.68
2022-12-28T18:52:20.705Z,12.68
2022-12-28T18:54:24.495Z,12.69
2022-12-28T18:56:28.536Z,12.71
2022-12-28T18:58:33.320Z,12.71
2022-12-28T19:00:36.087Z,12.69
2022-12-28T19:02:39.047Z,12.72
2022-12-28T19:04:42.030Z,12.70
2022-12-28T19:06:45.521Z,12.68
2022-12-28T19:08:48.359Z,12.67
2022-12-28T19:10:51.062Z,12.66
2022-12-28T19:12:56.797Z,12.64
2022-12-28T19:14:59.528Z,12.63
2022-12-28T19:17:02.255Z,12.63
2022-12-28T19:19:05.141Z,12.63
2022-12-28T19:21:19.174Z,12.61
2022-12-28T19:23:22.309Z,12.62
2022-12-28T19:25:25.093Z,12.61
2022-12-28T19:27:27.787Z,12.60
2022-12-28T19:29:32.312Z,12.60
2022-12-28T19:31:35.798Z,12.59
2022-12-28T19:33:38.522Z,12.62
2022-12-28T19:35:42.335Z,12.60
2022-12-28T19:37:45.105Z,12.61
2022-12-28T19:39:50.217Z,12.62
2022-12-28T19:41:54.940Z,12.62
2022-12-28T19:43:57.887Z,12.61
2022-12-28T19:46:06.798Z,12.61
2022-12-28T19:48:09.516Z,12.61
2022-12-28T19:50:12.237Z,12.61
2022-12-28T19:52:14.913Z,12.60
2022-12-28T19:54:18.963Z,12.60
2022-12-28T19:56:22.564Z,12.60
2022-12-28T19:58:25.487Z,12.61
2022-12-28T20:00:28.234Z,12.59
2022-12-28T20:02:32.694Z,12.59
2022-12-28T20:04:35.542Z,12.58
2022-12-28T20:06:39.317Z,12.57
2022-12-28T20:08:46.334Z,12.57
2022-12-28T20:10:56.045Z,12.56
2022-12-28T20:12:58.810Z,12.57
2022-12-28T20:15:01.570Z,12.54
2022-12-28T20:17:04.260Z,12.56
2022-12-28T20:19:09.479Z,12.54
2022-12-28T20:21:20.858Z,12.54
2022-12-28T20:23:24.259Z,12.53
2022-12-28T20:25:26.982Z,12.53
2022-12-28T20:27:30.416Z,12.52
2022-12-28T20:29:33.363Z,12.51
2022-12-28T20:31:36.048Z,12.49
2022-12-28T20:33:39.606Z,12.50
2022-12-28T20:35:44.023Z,12.50
2022-12-28T20:37:46.662Z,12.49
2022-12-28T20:39:49.305Z,12.49
2022-12-28T20:42:09.558Z,12.47
2022-12-28T20:44:14.173Z,12.47
2022-12-28T20:46:16.900Z,12.47
2022-12-28T20:48:19.667Z,12.47
2022-12-28T20:50:22.575Z,12.45
2022-12-28T20:52:26.717Z,12.44
2022-12-28T20:54:29.466Z,12.44
2022-12-28T20:56:32.261Z,12.41
2022-12-28T20:58:35.511Z,12.42
2022-12-28T21:00:39.659Z,12.43
2022-12-28T21:02:42.283Z,12.40
2022-12-28T21:04:44.953Z,12.42
2022-12-28T21:06:47.646Z,12.40
2022-12-28T21:08:51.650Z,12.42
2022-12-28T21:10:54.567Z,12.42
2022-12-28T21:12:57.315Z,12.40
2022-12-28T21:14:59.953Z,12.40
2022-12-28T21:17:02.607Z,12.39
2022-12-28T21:19:05.279Z,12.38
2022-12-28T21:21:14.059Z,12.38
2022-12-28T21:23:17.192Z,12.38
2022-12-28T21:25:21.225Z,12.37
2022-12-28T21:27:23.924Z,12.36
2022-12-28T21:29:26.727Z,12.37
2022-12-28T21:31:29.395Z,12.38
2022-12-28T21:33:32.133Z,12.37
2022-12-28T21:35:35.072Z,12.36
2022-12-28T21:37:37.920Z,12.36
2022-12-28T21:39:40.580Z,12.35
2022-12-28T21:41:50.322Z,12.34
2022-12-28T21:43:53.105Z,12.35
2022-12-28T21:46:01.937Z,12.33
2022-12-28T21:48:05.920Z,12.32
2022-12-28T21:50:10.949Z,12.31
2022-12-28T21:52:13.590Z,12.33
2022-12-28T21:54:17.962Z,12.33
2022-12-28T21:56:20.619Z,12.33
2022-12-28T21:58:25.126Z,12.32
2022-12-28T22:00:45.405Z,12.33
2022-12-28T22:03:20.302Z,12.33
2022-12-28T22:05:40.636Z,12.32
2022-12-28T22:07:43.331Z,12.30
2022-12-28T22:10:04.036Z,12.30
2022-12-28T22:12:25.246Z,12.30
2022-12-28T22:14:29.436Z,12.28
2022-12-28T22:16:32.400Z,12.28
2022-12-28T22:19:04.107Z,12.27
2022-12-28T22:20:57.764Z,12.28
2022-12-28T22:23:02.194Z,12.28
2022-12-28T22:25:05.430Z,12.28
2022-12-28T22:27:08.246Z,12.27
2022-12-28T22:29:10.948Z,12.28
2022-12-28T22:31:15.130Z,12.28
2022-12-28T22:33:17.836Z,12.30
2022-12-28T22:35:20.639Z,12.28
2022-12-28T22:37:23.343Z,12.30
2022-12-28T22:39:26.367Z,12.28
2022-12-28T22:41:29.227Z,12.29
